Smoke Creek, Nevada
Current Conditions -  °F | °C
As of 5:23 AM on Thursday 18 Dec 2014 (Local Time) from KAAT Reporting Station
Overcast Overcast  
Wind Chill: 31°   Ceiling: 2800
Heat Index: 35°   Visibility: 10mi
Dew Point: 33°   Wind: 5mph
Humidity: 92%   Direction: 200°SSW
Pressure: 30.05"   Gusts: NA
Location:  41.1852°N, 119.649°W
Report Text: KAAT 181323Z AUTO 20004KT 10SM OVC028 02/01 A3005 RMK AO2 T00170006
Loading
Personal Weather Stations






























Interactive Weather Map New forecast layout! Learn more

10-Day Weather Forecast

Advertisements
Track Severe Weather on mobile